Time;durP1;ratioP1;P1;durP2;ratioP2;P2;SDS_P1;SDS_P2;PMS_P1;PMS_P2;Temp;Humidity;BMP_temperature;BMP_pressure;BME280_temperature;BME280_humidity;BME280_pressure;Samples;Min_cycle;Max_cycle;Signal;HPM_P1;HPM_P2
2021/12/12 00:00:31;;;;;;;61.00;29.83;;;0.10;99.90;;;;;;4968350;28;20212;-66
2021/12/12 00:03:03;;;;;;;63.47;28.53;;;0.10;99.90;;;;;;4973771;28;20295;-67
2021/12/12 00:05:34;;;;;;;65.03;28.87;;;0.10;99.90;;;;;;4991096;28;20310;-66
2021/12/12 00:08:02;;;;;;;61.40;25.77;;;0.00;99.90;;;;;;4977940;28;20377;-67
2021/12/12 00:10:32;;;;;;;63.60;27.70;;;0.00;99.90;;;;;;4986113;28;20208;-67
2021/12/12 00:13:06;;;;;;;58.20;26.50;;;-0.10;99.90;;;;;;4991142;28;20266;-66
2021/12/12 00:15:33;;;;;;;61.97;26.17;;;-0.10;99.90;;;;;;4991611;28;20740;-66
2021/12/12 00:18:01;;;;;;;51.57;26.23;;;-0.10;99.90;;;;;;4987505;28;20299;-67
2021/12/12 00:20:30;;;;;;;58.77;25.67;;;-0.20;99.90;;;;;;4990937;28;20689;-66
2021/12/12 00:22:59;;;;;;;57.90;25.53;;;-0.20;99.90;;;;;;4979777;28;20308;-66
2021/12/12 00:25:28;;;;;;;54.83;24.67;;;-0.20;99.90;;;;;;4989324;28;20754;-66
2021/12/12 00:27:55;;;;;;;61.40;24.70;;;-0.20;99.90;;;;;;4983331;28;20758;-67
2021/12/12 00:30:22;;;;;;;52.53;25.00;;;-0.30;99.90;;;;;;4981669;28;20643;-67
2021/12/12 00:32:50;;;;;;;56.37;24.53;;;-0.30;99.90;;;;;;4990801;28;20222;-67
2021/12/12 00:35:20;;;;;;;48.27;23.40;;;-0.40;99.90;;;;;;4981626;28;20208;-66
2021/12/12 00:37:49;;;;;;;53.93;24.13;;;-0.40;99.90;;;;;;4970979;28;20255;-67
2021/12/12 00:40:23;;;;;;;54.87;23.93;;;-0.40;99.90;;;;;;4985431;28;20275;-67
2021/12/12 00:42:53;;;;;;;63.93;25.17;;;-0.50;99.90;;;;;;4987139;28;20295;-67
2021/12/12 00:45:21;;;;;;;47.13;23.17;;;-0.60;99.90;;;;;;4985015;28;20594;-66
2021/12/12 00:47:48;;;;;;;54.60;25.13;;;-0.60;99.90;;;;;;4971233;28;20641;-66
2021/12/12 00:50:20;;;;;;;55.23;23.23;;;-0.70;99.90;;;;;;4978611;28;20204;-66
2021/12/12 00:52:49;;;;;;;46.80;23.80;;;-0.80;99.90;;;;;;4969116;28;20283;-66
2021/12/12 00:55:16;;;;;;;56.33;24.87;;;-0.80;99.90;;;;;;4979075;28;20303;-66
2021/12/12 00:57:49;;;;;;;50.93;25.10;;;-0.90;99.90;;;;;;4978381;28;20240;-67
2021/12/12 01:00:17;;;;;;;44.50;22.80;;;-0.90;99.90;;;;;;4990977;28;20286;-66
2021/12/12 01:02:44;;;;;;;47.43;22.57;;;-0.90;99.90;;;;;;4987035;28;20721;-65
2021/12/12 01:05:13;;;;;;;41.77;22.17;;;-0.90;99.90;;;;;;4986028;28;20255;-66
2021/12/12 01:07:44;;;;;;;48.67;23.30;;;-0.90;99.90;;;;;;4972484;28;20299;-67
2021/12/12 01:10:17;;;;;;;51.03;25.20;;;-0.80;99.90;;;;;;4975685;28;20318;-67
2021/12/12 01:12:44;;;;;;;46.80;23.10;;;-0.80;99.90;;;;;;4987298;28;20295;-67
2021/12/12 01:15:15;;;;;;;49.73;23.97;;;-0.80;99.90;;;;;;4988357;28;20314;-66
2021/12/12 01:17:44;;;;;;;54.53;25.40;;;-0.80;99.90;;;;;;4991012;28;20211;-66
2021/12/12 01:20:17;;;;;;;50.77;23.17;;;-0.70;99.90;;;;;;4989592;28;20661;-66
2021/12/12 01:22:46;;;;;;;56.83;25.20;;;-0.70;99.90;;;;;;4982674;28;20291;-67
2021/12/12 01:25:18;;;;;;;54.60;25.97;;;-0.80;99.90;;;;;;4973446;28;20597;-66
2021/12/12 01:27:45;;;;;;;57.80;23.53;;;-0.80;99.90;;;;;;4969525;28;20290;-67
2021/12/12 01:30:13;;;;;;;51.33;26.53;;;-0.80;99.90;;;;;;4990562;28;20299;-66
2021/12/12 01:32:41;;;;;;;51.77;24.83;;;-0.80;99.90;;;;;;4982244;28;20219;-66
2021/12/12 01:35:15;;;;;;;55.87;25.97;;;-0.80;99.90;;;;;;4975774;28;20288;-67
2021/12/12 01:37:50;;;;;;;53.73;25.60;;;-0.90;99.90;;;;;;4970967;28;20209;-66
2021/12/12 01:40:23;;;;;;;57.83;25.90;;;-0.90;99.90;;;;;;4971260;28;20753;-67
2021/12/12 01:42:54;;;;;;;57.87;26.13;;;-0.90;99.90;;;;;;4971214;28;20208;-67
2021/12/12 01:45:24;;;;;;;52.57;24.83;;;-0.90;99.90;;;;;;4972088;28;20213;-66
2021/12/12 01:47:54;;;;;;;58.13;25.93;;;-0.80;99.90;;;;;;4970723;28;20300;-67
2021/12/12 01:50:28;;;;;;;56.20;28.73;;;-0.80;99.90;;;;;;4979475;28;20256;-67
2021/12/12 01:52:57;;;;;;;60.83;27.47;;;-0.80;99.90;;;;;;4978997;28;20652;-66
2021/12/12 01:55:28;;;;;;;60.37;28.73;;;-0.70;99.90;;;;;;4990345;28;20688;-66
2021/12/12 01:57:58;;;;;;;66.53;28.17;;;-0.70;99.90;;;;;;4983266;28;20894;-66
2021/12/12 02:00:30;;;;;;;57.97;25.70;;;-0.70;99.90;;;;;;4990618;28;20704;-67
2021/12/12 02:02:58;;;;;;;57.60;27.07;;;-0.70;99.90;;;;;;4983145;28;20281;-67
2021/12/12 02:05:26;;;;;;;62.87;28.23;;;-0.60;99.90;;;;;;4973354;28;20320;-66
2021/12/12 02:07:57;;;;;;;60.90;26.13;;;-0.60;99.90;;;;;;4972264;28;20647;-67
2021/12/12 02:10:28;;;;;;;62.17;26.40;;;-0.50;99.90;;;;;;4981549;28;20615;-67
2021/12/12 02:12:56;;;;;;;56.50;26.20;;;-0.50;99.90;;;;;;4980416;28;20303;-66
2021/12/12 02:15:24;;;;;;;58.93;25.30;;;-0.50;99.90;;;;;;4988967;28;20201;-66
2021/12/12 02:17:52;;;;;;;60.43;24.70;;;-0.50;99.90;;;;;;4975513;28;20249;-66
2021/12/12 02:20:30;;;;;;;57.90;25.23;;;-0.50;99.90;;;;;;4992557;28;20212;-66
2021/12/12 02:23:07;;;;;;;56.50;25.27;;;-0.50;99.90;;;;;;4978632;28;20200;-66
2021/12/12 02:36:38;;;;;;;59.83;23.90;;;-0.40;99.90;;;;;;4976201;28;20200;-67
2021/12/12 02:39:15;;;;;;;51.40;23.43;;;-0.40;99.90;;;;;;4991770;28;20296;-66
2021/12/12 02:41:44;;;;;;;54.50;23.70;;;-0.40;99.90;;;;;;4992741;28;20258;-67
2021/12/12 02:44:12;;;;;;;65.87;22.77;;;-0.40;99.90;;;;;;4975503;28;20662;-67
2021/12/12 02:46:42;;;;;;;56.53;23.27;;;-0.40;99.90;;;;;;4972805;28;20216;-66
2021/12/12 02:49:24;;;;;;;65.73;22.83;;;-0.40;99.90;;;;;;4976777;28;20312;-67
2021/12/12 02:51:53;;;;;;;54.63;22.63;;;-0.40;99.90;;;;;;4968005;28;20235;-67
2021/12/12 02:54:22;;;;;;;58.57;23.30;;;-0.40;99.90;;;;;;4986680;28;20604;-66
2021/12/12 02:56:50;;;;;;;50.10;21.90;;;-0.40;99.90;;;;;;4992299;28;20227;-67
2021/12/12 02:59:21;;;;;;;50.07;22.43;;;-0.40;99.90;;;;;;4987075;28;20277;-66
2021/12/12 03:01:52;;;;;;;52.80;21.30;;;-0.40;99.90;;;;;;4988445;28;20637;-66
2021/12/12 03:04:20;;;;;;;47.43;20.63;;;-0.40;99.90;;;;;;4978006;28;20290;-66
2021/12/12 03:06:47;;;;;;;50.07;22.80;;;-0.40;99.90;;;;;;4973971;28;20339;-67
2021/12/12 03:09:18;;;;;;;43.03;20.33;;;-0.30;99.90;;;;;;4983915;28;20299;-66
2021/12/12 03:11:50;;;;;;;42.63;19.33;;;-0.40;99.90;;;;;;4985367;28;20235;-66
2021/12/12 03:14:18;;;;;;;54.43;20.17;;;-0.40;99.90;;;;;;4967333;28;20619;-66
2021/12/12 03:16:46;;;;;;;43.87;18.73;;;-0.30;99.90;;;;;;4985954;28;20224;-66
2021/12/12 03:19:13;;;;;;;46.67;21.17;;;-0.40;99.90;;;;;;4982785;28;20302;-67
2021/12/12 03:21:45;;;;;;;47.03;20.43;;;-0.40;99.90;;;;;;4977523;28;20307;-66
2021/12/12 03:24:15;;;;;;;45.77;21.17;;;-0.40;99.90;;;;;;4972271;28;20291;-67
2021/12/12 03:26:45;;;;;;;45.93;19.93;;;-0.40;99.90;;;;;;4985875;28;20326;-66
2021/12/12 03:29:14;;;;;;;44.37;20.20;;;-0.30;99.90;;;;;;4974921;28;20287;-64
2021/12/12 03:31:46;;;;;;;55.03;22.13;;;-0.30;99.90;;;;;;4972055;28;20295;-66
2021/12/12 03:34:15;;;;;;;49.27;20.37;;;-0.30;99.90;;;;;;4977556;28;20303;-66
2021/12/12 03:36:45;;;;;;;49.00;22.17;;;-0.40;99.90;;;;;;4985140;28;20210;-66
2021/12/12 03:39:16;;;;;;;47.70;21.83;;;-0.30;99.90;;;;;;4991681;28;20716;-65
2021/12/12 03:41:43;;;;;;;50.17;21.83;;;-0.30;99.90;;;;;;4979827;28;20296;-66
2021/12/12 03:44:14;;;;;;;54.23;20.97;;;-0.30;99.90;;;;;;4989796;28;20203;-66
2021/12/12 03:46:43;;;;;;;54.63;22.80;;;-0.30;99.90;;;;;;4986858;28;20595;-66
2021/12/12 03:49:10;;;;;;;53.70;22.60;;;-0.30;99.90;;;;;;4976037;28;20315;-66
2021/12/12 03:51:39;;;;;;;48.57;22.43;;;-0.30;99.90;;;;;;4991725;28;20294;-67
2021/12/12 03:54:07;;;;;;;55.40;23.23;;;-0.30;99.90;;;;;;4985707;28;20241;-65
2021/12/12 03:56:34;;;;;;;56.87;24.30;;;-0.30;99.90;;;;;;4985932;28;20504;-65
2021/12/12 03:59:01;;;;;;;55.73;24.77;;;-0.30;99.90;;;;;;4986137;28;20330;-66
2021/12/12 04:01:35;;;;;;;50.60;23.13;;;-0.20;99.90;;;;;;4975601;28;20223;-67
2021/12/12 04:04:09;;;;;;;55.27;22.50;;;-0.20;99.90;;;;;;4983756;28;20654;-66
2021/12/12 04:06:36;;;;;;;55.80;25.17;;;-0.20;99.90;;;;;;4975036;28;20220;-65
2021/12/12 04:09:07;;;;;;;53.90;23.90;;;-0.10;99.90;;;;;;4976465;28;20299;-67
2021/12/12 04:11:37;;;;;;;62.13;26.60;;;-0.10;99.90;;;;;;4985330;28;20290;-66
2021/12/12 04:14:05;;;;;;;52.63;25.43;;;-0.10;99.90;;;;;;4979989;28;20235;-66
2021/12/12 04:16:37;;;;;;;49.30;24.57;;;0.00;99.90;;;;;;4984668;28;20209;-67
2021/12/12 04:19:06;;;;;;;52.07;24.57;;;0.00;99.90;;;;;;4986878;28;20204;-66
2021/12/12 04:21:34;;;;;;;43.93;23.43;;;0.00;99.90;;;;;;4991764;28;20207;-66
2021/12/12 04:24:02;;;;;;;56.23;24.40;;;0.10;99.90;;;;;;4974597;28;20213;-66
2021/12/12 04:26:32;;;;;;;48.87;21.50;;;0.10;99.90;;;;;;4983510;28;20241;-66
2021/12/12 04:29:01;;;;;;;50.83;25.07;;;0.10;99.90;;;;;;4973715;28;20287;-67
2021/12/12 04:31:29;;;;;;;45.10;22.67;;;0.10;99.90;;;;;;4982916;28;20315;-66
2021/12/12 04:33:59;;;;;;;52.23;25.33;;;0.20;99.90;;;;;;4976885;28;20607;-67
2021/12/12 04:36:28;;;;;;;49.07;21.67;;;0.20;99.90;;;;;;4981937;28;20208;-67
2021/12/12 04:39:05;;;;;;;45.63;22.00;;;0.20;99.90;;;;;;4977615;28;20211;-67
2021/12/12 04:41:32;;;;;;;44.43;21.10;;;0.20;99.90;;;;;;4980603;28;20232;-66
2021/12/12 04:43:59;;;;;;;46.53;22.90;;;0.20;99.90;;;;;;4974412;28;20219;-67
2021/12/12 04:46:37;;;;;;;48.03;22.43;;;0.30;99.90;;;;;;4985244;28;20234;-66
2021/12/12 04:51:57;;;;;;;52.13;23.80;;;0.30;99.90;;;;;;4967072;28;20211;-67
2021/12/12 04:54:31;;;;;;;51.27;23.23;;;0.30;99.90;;;;;;4985520;28;20203;-67
2021/12/12 04:57:02;;;;;;;47.60;23.97;;;0.30;99.90;;;;;;4989643;28;20314;-66
2021/12/12 04:59:35;;;;;;;54.40;23.97;;;0.30;99.90;;;;;;4971433;28;20796;-68
2021/12/12 05:02:08;;;;;;;49.67;23.97;;;0.30;99.90;;;;;;4983171;28;20287;-66
2021/12/12 05:04:44;;;;;;;55.97;25.77;;;0.30;99.90;;;;;;4984925;28;20210;-67
2021/12/12 05:07:14;;;;;;;54.30;24.20;;;0.30;99.90;;;;;;4978793;28;20270;-66
2021/12/12 05:09:50;;;;;;;54.43;26.90;;;0.40;99.90;;;;;;4977683;28;20248;-67
2021/12/12 05:12:23;;;;;;;48.77;23.93;;;0.30;99.90;;;;;;4971086;28;20205;-67
2021/12/12 05:14:55;;;;;;;50.23;24.43;;;0.40;99.90;;;;;;4985452;28;20208;-66
2021/12/12 05:17:27;;;;;;;48.67;24.00;;;0.40;99.90;;;;;;4990368;28;20203;-67
2021/12/12 05:20:00;;;;;;;54.23;25.93;;;0.40;99.90;;;;;;4984201;28;20672;-65
2021/12/12 05:22:32;;;;;;;52.07;25.10;;;0.50;99.90;;;;;;4980845;28;20196;-67
2021/12/12 05:25:03;;;;;;;49.77;25.50;;;0.50;99.90;;;;;;4989331;28;20218;-67
2021/12/12 05:27:33;;;;;;;57.27;26.13;;;0.60;99.90;;;;;;4970912;28;20233;-67
2021/12/12 05:30:04;;;;;;;51.60;27.13;;;0.60;99.90;;;;;;4971104;28;20291;-67
2021/12/12 05:32:33;;;;;;;48.93;25.27;;;0.60;99.90;;;;;;4977137;28;20208;-66
2021/12/12 05:35:02;;;;;;;50.00;26.27;;;0.60;99.90;;;;;;4982367;28;20211;-66
2021/12/12 05:37:29;;;;;;;50.53;25.73;;;0.60;99.90;;;;;;4986033;28;20272;-66
2021/12/12 05:40:00;;;;;;;56.30;26.00;;;0.60;99.90;;;;;;4974090;28;20221;-67
2021/12/12 05:42:29;;;;;;;54.83;24.73;;;0.60;99.90;;;;;;4977845;28;20202;-67
2021/12/12 05:44:56;;;;;;;52.10;24.90;;;0.70;99.90;;;;;;4965847;28;20299;-66
2021/12/12 05:47:23;;;;;;;43.03;24.37;;;0.60;99.90;;;;;;4989183;28;20701;-66
2021/12/12 05:49:50;;;;;;;54.13;25.83;;;0.70;99.90;;;;;;4979678;28;20248;-66
2021/12/12 05:52:22;;;;;;;51.17;26.13;;;0.70;99.90;;;;;;4993884;28;20302;-66
2021/12/12 05:54:51;;;;;;;47.40;25.10;;;0.60;99.90;;;;;;4989196;28;20215;-67
2021/12/12 05:57:23;;;;;;;53.57;26.20;;;0.70;99.90;;;;;;4983472;28;20267;-66
2021/12/12 05:59:51;;;;;;;44.77;23.77;;;0.70;99.90;;;;;;4977406;28;20234;-66
2021/12/12 06:02:18;;;;;;;47.47;24.43;;;0.70;99.90;;;;;;4975055;28;20311;-66
2021/12/12 06:04:46;;;;;;;44.87;23.87;;;0.70;99.90;;;;;;4988176;28;20253;-67
2021/12/12 06:07:19;;;;;;;49.87;24.03;;;0.70;99.90;;;;;;4981895;28;20310;-68
2021/12/12 06:09:46;;;;;;;42.97;23.27;;;0.70;99.90;;;;;;4989440;28;20212;-68
2021/12/12 06:12:14;;;;;;;51.00;26.27;;;0.70;99.90;;;;;;4986319;28;20300;-66
2021/12/12 06:14:42;;;;;;;47.80;24.00;;;0.70;99.90;;;;;;4987998;28;20247;-66
2021/12/12 06:17:11;;;;;;;45.23;24.10;;;0.70;99.90;;;;;;4978319;28;20291;-67
2021/12/12 06:19:39;;;;;;;42.00;23.30;;;0.70;99.90;;;;;;4974004;28;20299;-67
2021/12/12 06:22:07;;;;;;;47.70;25.47;;;0.70;99.90;;;;;;4973151;28;20240;-66
2021/12/12 06:24:37;;;;;;;48.53;26.20;;;0.70;99.90;;;;;;4973788;28;20576;-66
2021/12/12 06:27:06;;;;;;;44.80;24.57;;;0.70;99.90;;;;;;4971651;28;20220;-66
2021/12/12 06:29:34;;;;;;;52.00;27.23;;;0.70;99.90;;;;;;4973427;28;20215;-67
2021/12/12 06:32:02;;;;;;;50.87;27.13;;;0.70;99.90;;;;;;4973560;28;20213;-66
2021/12/12 06:34:29;;;;;;;47.17;25.40;;;0.70;99.90;;;;;;4973642;28;20304;-66
2021/12/12 06:36:57;;;;;;;51.20;27.23;;;0.70;99.90;;;;;;4974284;28;20639;-68
2021/12/12 06:39:24;;;;;;;52.80;26.07;;;0.70;99.90;;;;;;4975000;28;20208;-68
2021/12/12 06:41:53;;;;;;;47.83;24.93;;;0.70;99.90;;;;;;4974348;28;20722;-68
2021/12/12 06:44:21;;;;;;;48.70;25.63;;;0.70;99.90;;;;;;4975217;28;20215;-69
2021/12/12 06:46:48;;;;;;;55.77;27.10;;;0.70;99.90;;;;;;4974973;28;20312;-69
2021/12/12 06:49:18;;;;;;;61.23;28.87;;;0.70;99.90;;;;;;4973804;28;20236;-69
2021/12/12 06:51:48;;;;;;;69.00;31.90;;;0.70;99.90;;;;;;4987767;28;20259;-69
2021/12/12 06:54:16;;;;;;;67.83;31.53;;;0.70;99.90;;;;;;4991129;28;20764;-69
2021/12/12 06:56:44;;;;;;;77.53;32.07;;;0.60;99.90;;;;;;4984292;28;20748;-68
2021/12/12 06:59:12;;;;;;;79.73;33.77;;;0.60;99.90;;;;;;4985645;28;20280;-68
2021/12/12 07:01:40;;;;;;;77.00;35.67;;;0.60;99.90;;;;;;4981799;28;20300;-68
2021/12/12 07:04:09;;;;;;;82.17;32.37;;;0.50;99.90;;;;;;4973824;28;20247;-70
2021/12/12 07:06:37;;;;;;;79.67;32.50;;;0.60;99.90;;;;;;4976280;28;20294;-68
2021/12/12 07:09:07;;;;;;;78.77;34.03;;;0.50;99.90;;;;;;4983117;28;20224;-69
2021/12/12 07:11:35;;;;;;;73.27;31.90;;;0.50;99.90;;;;;;4992237;28;20295;-66
2021/12/12 07:14:02;;;;;;;80.47;31.63;;;0.50;99.90;;;;;;4992504;28;20725;-66
2021/12/12 07:16:32;;;;;;;76.10;31.40;;;0.50;99.90;;;;;;4987116;28;20377;-67
2021/12/12 07:18:59;;;;;;;87.53;32.33;;;0.40;99.90;;;;;;4974733;28;20213;-66
2021/12/12 07:21:26;;;;;;;79.97;31.37;;;0.40;99.90;;;;;;4985770;28;20727;-66
2021/12/12 07:23:55;;;;;;;75.17;29.97;;;0.40;99.90;;;;;;4991656;28;20720;-66
2021/12/12 07:26:24;;;;;;;77.73;31.27;;;0.30;99.90;;;;;;4978657;28;20213;-67
2021/12/12 07:28:52;;;;;;;80.80;31.80;;;0.30;99.90;;;;;;4978064;28;20204;-66
2021/12/12 07:31:22;;;;;;;69.00;31.53;;;0.20;99.90;;;;;;4980353;28;20219;-66
2021/12/12 07:33:55;;;;;;;77.73;32.10;;;0.20;99.90;;;;;;4980085;28;20214;-67
2021/12/12 07:36:23;;;;;;;70.97;30.87;;;0.20;99.90;;;;;;4968096;28;20296;-66
2021/12/12 07:38:55;;;;;;;78.57;32.30;;;0.10;99.90;;;;;;4988585;28;20636;-66
2021/12/12 07:41:25;;;;;;;68.13;30.70;;;0.10;99.90;;;;;;4991574;28;20204;-67
2021/12/12 07:43:52;;;;;;;81.40;32.30;;;0.10;99.90;;;;;;4991684;28;20239;-67
2021/12/12 07:46:20;;;;;;;87.27;34.17;;;0.10;99.90;;;;;;4987176;28;20303;-66
2021/12/12 07:48:51;;;;;;;81.33;34.70;;;0.20;99.90;;;;;;4972132;28;20276;-67
2021/12/12 07:51:21;;;;;;;88.73;37.93;;;0.10;99.90;;;;;;4972852;28;20204;-67
2021/12/12 07:53:52;;;;;;;87.73;36.50;;;0.10;99.90;;;;;;4982562;28;20208;-67
2021/12/12 07:56:19;;;;;;;85.97;36.77;;;0.10;99.90;;;;;;4979936;28;20237;-66
2021/12/12 07:58:47;;;;;;;97.97;38.00;;;0.10;99.90;;;;;;4983747;28;20811;-66
2021/12/12 08:01:14;;;;;;;99.03;39.17;;;0.10;99.90;;;;;;4982716;28;20244;-67
2021/12/12 08:03:42;;;;;;;85.83;37.23;;;0.00;99.90;;;;;;4989905;28;20612;-68
2021/12/12 08:06:14;;;;;;;98.50;36.57;;;0.00;99.90;;;;;;4977941;28;20276;-69
2021/12/12 08:08:45;;;;;;;96.53;37.97;;;0.00;99.90;;;;;;4975274;28;20216;-68
2021/12/12 08:11:17;;;;;;;98.27;38.43;;;0.00;99.90;;;;;;4986443;28;20270;-69
2021/12/12 08:13:44;;;;;;;88.80;36.40;;;0.00;99.90;;;;;;4985732;28;20208;-70
2021/12/12 08:16:14;;;;;;;96.10;38.70;;;-0.10;99.90;;;;;;4983735;28;20236;-69
2021/12/12 08:18:42;;;;;;;96.60;37.57;;;-0.10;99.90;;;;;;4970363;28;20266;-69
2021/12/12 08:21:10;;;;;;;101.87;41.10;;;-0.10;99.90;;;;;;4968732;28;20279;-69
2021/12/12 08:23:39;;;;;;;95.23;40.70;;;-0.10;99.90;;;;;;4967192;28;20492;-71
2021/12/12 08:26:07;;;;;;;102.33;41.87;;;-0.10;99.90;;;;;;4972818;28;20303;-69
2021/12/12 08:28:34;;;;;;;102.33;43.43;;;-0.10;99.90;;;;;;4971991;28;20670;-67
2021/12/12 08:31:02;;;;;;;105.10;43.10;;;0.00;99.90;;;;;;4960682;28;20251;-69
2021/12/12 08:33:29;;;;;;;121.13;44.80;;;0.00;99.90;;;;;;4966236;28;20251;-68
2021/12/12 08:35:57;;;;;;;125.13;49.33;;;0.00;99.90;;;;;;4970718;28;20635;-69
2021/12/12 08:38:26;;;;;;;131.97;48.37;;;0.00;99.90;;;;;;4971899;28;20292;-68
2021/12/12 08:40:57;;;;;;;130.83;51.80;;;0.10;99.90;;;;;;4971759;28;20312;-68
2021/12/12 08:43:26;;;;;;;137.50;54.90;;;0.00;99.90;;;;;;4970799;28;20209;-69
2021/12/12 08:45:56;;;;;;;152.77;57.17;;;0.00;99.90;;;;;;4969748;28;20304;-68
2021/12/12 08:48:25;;;;;;;153.23;57.50;;;0.00;99.90;;;;;;4970745;28;20319;-67
2021/12/12 08:50:56;;;;;;;167.53;60.93;;;0.00;99.90;;;;;;4984736;28;20510;-68
2021/12/12 08:53:25;;;;;;;175.33;64.20;;;0.00;99.90;;;;;;4979619;28;20204;-67
2021/12/12 08:55:54;;;;;;;160.43;63.73;;;0.00;99.90;;;;;;4983451;28;20266;-67
2021/12/12 08:58:23;;;;;;;174.27;64.83;;;-0.10;99.90;;;;;;4979197;28;20243;-69
2021/12/12 09:00:53;;;;;;;175.17;65.93;;;-0.10;99.90;;;;;;4972909;28;20303;-67
2021/12/12 09:03:24;;;;;;;159.00;62.80;;;-0.10;99.90;;;;;;4976254;28;20247;-68
2021/12/12 09:05:52;;;;;;;166.10;63.13;;;-0.10;99.90;;;;;;4983290;28;20646;-68
2021/12/12 09:08:33;;;;;;;159.57;62.97;;;-0.10;99.90;;;;;;4980737;28;20315;-68
2021/12/12 09:11:05;;;;;;;150.53;61.07;;;-0.20;99.90;;;;;;4985101;28;20300;-67
2021/12/12 09:13:38;;;;;;;160.83;62.80;;;-0.30;99.90;;;;;;4976015;28;20701;-68
2021/12/12 09:16:11;;;;;;;144.50;59.20;;;-0.30;99.90;;;;;;4985642;28;20302;-66
2021/12/12 09:18:42;;;;;;;150.37;61.07;;;-0.40;99.90;;;;;;4974962;28;20219;-68
2021/12/12 09:21:13;;;;;;;156.40;59.17;;;-0.30;99.90;;;;;;4974981;28;20547;-67
2021/12/12 09:23:51;;;;;;;149.97;59.40;;;-0.30;99.90;;;;;;4974736;28;20208;-67
2021/12/12 09:26:23;;;;;;;155.20;61.43;;;-0.30;99.90;;;;;;4974900;28;20529;-68
2021/12/12 09:28:55;;;;;;;163.87;63.07;;;-0.30;99.90;;;;;;4974792;28;20233;-66
2021/12/12 09:31:28;;;;;;;156.13;61.57;;;-0.40;99.90;;;;;;4974658;28;20291;-68
2021/12/12 09:33:59;;;;;;;167.07;63.40;;;-0.40;99.90;;;;;;4974986;28;20312;-67
2021/12/12 09:36:34;;;;;;;150.63;60.77;;;-0.40;99.90;;;;;;4975027;28;20287;-68
2021/12/12 09:39:08;;;;;;;151.63;59.97;;;-0.50;99.90;;;;;;4974921;28;20648;-67
2021/12/12 09:41:52;;;;;;;166.17;62.13;;;-0.50;99.90;;;;;;4974109;28;20267;-66
2021/12/12 09:44:58;;;;;;;145.57;56.80;;;-0.50;99.90;;;;;;4974602;28;20215;-66
2021/12/12 09:47:59;;;;;;;137.77;56.97;;;-0.50;99.90;;;;;;4961420;28;20525;-69
2021/12/12 09:53:47;;;;;;;132.23;53.87;;;-0.40;99.90;;;;;;4977774;28;20308;-67
2021/12/12 09:56:29;;;;;;;131.93;54.33;;;-0.40;99.90;;;;;;4977589;28;20657;-67
2021/12/12 09:59:03;;;;;;;120.53;49.67;;;-0.40;99.90;;;;;;4964064;28;20315;-67
2021/12/12 10:01:34;;;;;;;123.07;51.70;;;-0.40;99.90;;;;;;4978443;28;20220;-67
2021/12/12 10:04:15;;;;;;;112.30;48.53;;;-0.40;99.90;;;;;;4975591;28;20235;-67
2021/12/12 10:07:04;;;;;;;113.20;48.37;;;-0.30;99.90;;;;;;4979445;28;20509;-67
2021/12/12 10:09:38;;;;;;;109.70;43.80;;;-0.30;99.90;;;;;;4977486;28;20313;-66
2021/12/12 10:12:12;;;;;;;113.20;48.23;;;-0.30;99.90;;;;;;4960307;28;20236;-66
2021/12/12 10:14:45;;;;;;;118.03;49.77;;;-0.40;99.90;;;;;;4973288;28;20254;-65
2021/12/12 10:17:19;;;;;;;109.33;48.10;;;-0.30;99.90;;;;;;4967693;28;20236;-68
2021/12/12 10:19:51;;;;;;;103.10;44.90;;;-0.30;99.90;;;;;;4973599;28;20204;-68
2021/12/12 10:22:28;;;;;;;120.77;48.73;;;-0.20;99.90;;;;;;4969388;28;20205;-67
2021/12/12 10:25:01;;;;;;;101.67;42.80;;;-0.20;99.90;;;;;;4973556;28;20228;-66
2021/12/12 10:27:35;;;;;;;102.53;44.30;;;-0.20;99.90;;;;;;4966375;28;20216;-67
2021/12/12 10:30:10;;;;;;;107.63;45.33;;;-0.20;99.90;;;;;;4972633;28;20295;-67
2021/12/12 10:32:47;;;;;;;94.20;42.60;;;-0.30;99.90;;;;;;4973137;28;20295;-68
2021/12/12 10:35:18;;;;;;;96.93;42.77;;;-0.20;99.90;;;;;;4973626;28;20274;-68
2021/12/12 10:37:53;;;;;;;96.20;43.30;;;-0.30;99.90;;;;;;4974283;28;20278;-69
2021/12/12 10:40:25;;;;;;;96.70;41.17;;;-0.30;99.90;;;;;;4972949;28;20294;-67
2021/12/12 10:42:57;;;;;;;90.07;40.33;;;-0.30;99.90;;;;;;4972756;28;20212;-66
2021/12/12 10:45:29;;;;;;;91.80;41.77;;;-0.30;99.90;;;;;;4972331;28;20236;-67
2021/12/12 10:48:00;;;;;;;87.63;39.13;;;-0.30;99.90;;;;;;4972451;28;20232;-66
2021/12/12 10:50:38;;;;;;;84.60;36.47;;;-0.20;99.90;;;;;;4977006;28;20235;-67
2021/12/12 10:53:11;;;;;;;85.67;37.93;;;-0.30;99.90;;;;;;4979834;28;20749;-67
2021/12/12 10:55:44;;;;;;;90.07;38.33;;;-0.30;99.90;;;;;;4985267;28;20249;-67
2021/12/12 10:58:18;;;;;;;84.03;37.20;;;-0.30;99.90;;;;;;4976717;28;20267;-68
2021/12/12 11:00:48;;;;;;;89.40;38.00;;;-0.40;99.90;;;;;;4994204;28;20718;-67
2021/12/12 11:03:20;;;;;;;94.87;39.00;;;-0.40;99.90;;;;;;4990920;28;20294;-66
2021/12/12 11:05:52;;;;;;;89.97;38.80;;;-0.40;99.90;;;;;;4972669;28;20239;-67
2021/12/12 11:08:25;;;;;;;86.87;36.67;;;-0.40;99.90;;;;;;4985219;28;20300;-69
2021/12/12 11:10:56;;;;;;;81.70;37.47;;;-0.30;99.90;;;;;;4994319;28;20295;-67
2021/12/12 11:13:33;;;;;;;86.77;37.50;;;-0.30;99.90;;;;;;4979718;28;21050;-67
2021/12/12 11:16:05;;;;;;;89.30;37.70;;;-0.30;99.90;;;;;;4985542;28;20290;-67
2021/12/12 11:18:38;;;;;;;88.00;37.67;;;-0.30;99.90;;;;;;4979845;28;20633;-67
2021/12/12 11:21:12;;;;;;;101.00;40.97;;;-0.30;99.90;;;;;;4984859;28;20292;-68
2021/12/12 11:23:45;;;;;;;84.63;37.33;;;-0.30;99.90;;;;;;4974681;28;20295;-68
2021/12/12 11:26:16;;;;;;;86.87;36.37;;;-0.20;99.90;;;;;;4973060;28;20295;-67
2021/12/12 11:28:48;;;;;;;87.10;36.43;;;-0.20;99.90;;;;;;4972816;28;20659;-69
2021/12/12 11:31:18;;;;;;;96.77;38.30;;;-0.10;99.90;;;;;;4973346;28;20287;-67
2021/12/12 11:33:53;;;;;;;93.40;38.43;;;-0.10;99.90;;;;;;4972603;28;20267;-67
2021/12/12 11:36:25;;;;;;;89.73;37.97;;;-0.10;99.90;;;;;;4971477;28;20203;-68
2021/12/12 11:39:02;;;;;;;89.03;37.00;;;-0.10;99.90;;;;;;4973396;28;20701;-68
2021/12/12 11:41:49;;;;;;;97.03;37.93;;;-0.10;99.90;;;;;;4972791;28;20212;-67
2021/12/12 11:44:26;;;;;;;100.83;40.23;;;-0.20;99.90;;;;;;4973999;28;20231;-67
2021/12/12 11:47:04;;;;;;;88.63;37.57;;;-0.20;99.90;;;;;;4967271;28;20204;-67
2021/12/12 11:49:50;;;;;;;89.23;34.60;;;-0.30;99.90;;;;;;4974284;28;20760;-67
2021/12/12 11:52:31;;;;;;;88.90;34.43;;;-0.20;99.90;;;;;;4977618;28;20232;-67
2021/12/12 11:55:03;;;;;;;84.10;35.37;;;-0.30;99.90;;;;;;4992017;28;20242;-67
2021/12/12 11:57:33;;;;;;;86.07;35.77;;;-0.20;99.90;;;;;;4992954;28;20330;-69
2021/12/12 12:00:11;;;;;;;90.47;35.70;;;-0.30;99.90;;;;;;4993191;28;20683;-66
2021/12/12 12:02:46;;;;;;;93.53;35.83;;;-0.30;99.90;;;;;;4993582;28;20692;-67
2021/12/12 12:05:26;;;;;;;88.70;34.13;;;-0.30;99.90;;;;;;4996636;28;20254;-68
2021/12/12 12:08:01;;;;;;;88.53;36.73;;;-0.30;99.90;;;;;;4986396;28;20507;-67
2021/12/12 12:10:41;;;;;;;89.50;36.37;;;-0.20;99.90;;;;;;4967516;28;20294;-67
2021/12/12 12:13:32;;;;;;;85.00;34.47;;;-0.30;99.90;;;;;;4992371;28;20211;-66
2021/12/12 12:16:08;;;;;;;89.67;33.93;;;-0.30;99.90;;;;;;4992482;28;20235;-68
2021/12/12 12:18:42;;;;;;;90.73;34.40;;;-0.30;99.90;;;;;;4991118;28;20208;-68
2021/12/12 12:21:18;;;;;;;83.77;32.57;;;-0.30;99.90;;;;;;4978452;28;20300;-68
2021/12/12 12:24:10;;;;;;;75.93;32.93;;;-0.30;99.90;;;;;;4976362;28;20211;-67
2021/12/12 12:26:52;;;;;;;75.13;32.27;;;-0.30;99.90;;;;;;4979298;28;20205;-67
2021/12/12 12:30:16;;;;;;;82.80;32.57;;;-0.40;99.90;;;;;;4967982;28;20250;-67
2021/12/12 12:33:51;;;;;;;87.10;32.57;;;-0.30;99.90;;;;;;4976746;28;20207;-66
2021/12/12 12:37:10;;;;;;;76.87;31.97;;;-0.40;99.90;;;;;;4981297;28;20243;-67
2021/12/12 12:40:14;;;;;;;91.10;32.80;;;-0.30;99.90;;;;;;4969644;28;20290;-66
2021/12/12 12:43:30;;;;;;;82.43;34.17;;;-0.40;99.90;;;;;;4982788;28;20294;-68
2021/12/12 12:46:27;;;;;;;88.40;33.60;;;-0.40;99.90;;;;;;4989716;28;20243;-68
2021/12/12 12:49:30;;;;;;;90.27;32.93;;;-0.40;99.90;;;;;;4979772;28;20677;-67
2021/12/12 12:52:39;;;;;;;78.67;31.07;;;-0.40;99.90;;;;;;4971469;28;20433;-67
2021/12/12 12:55:27;;;;;;;81.83;31.37;;;-0.30;99.90;;;;;;4971371;28;20291;-69
2021/12/12 12:57:56;;;;;;;83.63;33.03;;;-0.30;99.90;;;;;;4977875;28;20681;-68
2021/12/12 13:00:28;;;;;;;77.13;31.93;;;-0.30;99.90;;;;;;4963429;28;20243;-67
2021/12/12 13:03:17;;;;;;;78.07;30.57;;;-0.20;99.90;;;;;;4985556;28;20666;-67
2021/12/12 13:06:04;;;;;;;70.40;30.70;;;-0.20;99.90;;;;;;4990846;28;20635;-68
2021/12/12 13:09:13;;;;;;;76.23;28.13;;;-0.30;99.90;;;;;;4985756;28;20231;-67
2021/12/12 13:11:55;;;;;;;67.23;27.23;;;-0.20;99.90;;;;;;4980329;28;20376;-67